createdAt,value
2022-10-17T00:00:05.584Z,99.8
2022-10-17T00:02:09.691Z,99.8
2022-10-17T00:04:13.749Z,99.9
2022-10-17T00:06:17.823Z,99.9
2022-10-17T00:08:21.910Z,99.9
2022-10-17T00:10:26.025Z,99.9
2022-10-17T00:12:33.100Z,99.9
2022-10-17T00:14:37.175Z,99.9
2022-10-17T00:17:44.798Z,99.9
2022-10-17T00:19:48.893Z,99.9
2022-10-17T00:21:52.980Z,99.9
2022-10-17T00:23:57.047Z,99.9
2022-10-17T00:26:04.161Z,99.9
2022-10-17T00:28:08.237Z,99.9
2022-10-17T00:30:12.330Z,99.9
2022-10-17T00:32:16.413Z,99.9
2022-10-17T00:34:20.469Z,99.9
2022-10-17T00:36:24.561Z,99.9
2022-10-17T00:38:28.623Z,99.9
2022-10-17T00:40:35.731Z,99.9
2022-10-17T00:44:43.869Z,99.9
2022-10-17T00:46:47.951Z,99.9
2022-10-17T00:50:56.101Z,99.9
2022-10-17T00:59:15.397Z,1
2022-10-17T01:01:19.481Z,1
2022-10-17T01:03:23.526Z,1
2022-10-17T01:05:27.602Z,1
2022-10-17T01:07:34.705Z,99.9
2022-10-17T01:09:38.761Z,99.9
2022-10-17T01:11:42.838Z,99.9
2022-10-17T01:13:46.925Z,99.9
2022-10-17T01:16:05.366Z,99.9
2022-10-17T01:20:13.588Z,99.9
2022-10-17T01:22:20.615Z,1
2022-10-17T01:24:24.682Z,1
2022-10-17T01:26:28.786Z,1
2022-10-17T01:28:32.904Z,1
2022-10-17T01:32:41.009Z,1
2022-10-17T01:36:52.153Z,99.9
2022-10-17T01:41:00.328Z,99.9
2022-10-17T01:45:10.058Z,99.9
2022-10-17T01:47:14.097Z,99.9
2022-10-17T01:51:25.274Z,1
2022-10-17T01:53:29.346Z,1
2022-10-17T01:55:33.436Z,1
2022-10-17T01:59:41.596Z,1
2022-10-17T02:01:45.795Z,99.9
2022-10-17T02:03:49.740Z,99.9
2022-10-17T02:05:56.848Z,99.9
2022-10-17T02:08:00.928Z,99.9
2022-10-17T02:11:08.560Z,99.9
2022-10-17T02:13:12.633Z,99.9
2022-10-17T02:15:16.721Z,99.9
2022-10-17T02:17:20.798Z,1
2022-10-17T02:19:27.899Z,1
2022-10-17T02:21:31.973Z,1
2022-10-17T02:23:36.052Z,1
2022-10-17T02:25:40.128Z,1
2022-10-17T02:27:44.185Z,1
2022-10-17T02:29:48.289Z,1
2022-10-17T02:31:52.381Z,1
2022-10-17T02:33:59.466Z,1
2022-10-17T02:36:03.539Z,1
2022-10-17T02:38:07.611Z,99.9
2022-10-17T02:40:11.711Z,1
2022-10-17T02:44:19.858Z,1
2022-10-17T02:46:23.915Z,1
2022-10-17T02:48:31.014Z,1
2022-10-17T02:50:35.098Z,1
2022-10-17T02:52:39.185Z,1
2022-10-17T02:54:43.263Z,1
2022-10-17T02:56:47.329Z,1
2022-10-17T02:58:51.430Z,1
2022-10-17T03:00:55.522Z,1
2022-10-17T03:03:02.582Z,1
2022-10-17T03:05:06.673Z,1
2022-10-17T03:07:10.766Z,1
2022-10-17T03:08:14.291Z,1
2022-10-17T03:10:18.367Z,1
2022-10-17T03:12:22.451Z,1
2022-10-17T03:14:26.535Z,1
2022-10-17T03:16:33.638Z,1
2022-10-17T03:18:37.723Z,1
2022-10-17T03:20:41.796Z,1
2022-10-17T03:22:45.880Z,1
2022-10-17T03:24:49.977Z,1
2022-10-17T03:26:54.066Z,1
2022-10-17T03:28:58.185Z,1
2022-10-17T03:31:05.233Z,1
2022-10-17T03:33:09.319Z,1
2022-10-17T03:35:14.892Z,1
2022-10-17T03:37:17.470Z,1
2022-10-17T03:39:21.558Z,1
2022-10-17T03:41:25.659Z,1
2022-10-17T03:43:29.744Z,1
2022-10-17T03:45:36.841Z,1
2022-10-17T03:47:40.912Z,1
2022-10-17T03:49:45.014Z,1
2022-10-17T03:51:49.108Z,1
2022-10-17T03:53:53.191Z,1
2022-10-17T03:55:57.285Z,1
2022-10-17T03:58:01.394Z,1
2022-10-17T04:00:08.485Z,1
2022-10-17T04:02:12.584Z,1
2022-10-17T04:04:16.678Z,1
2022-10-17T04:09:28.439Z,1
2022-10-17T04:11:32.500Z,1
2022-10-17T04:13:39.594Z,1
2022-10-17T04:15:43.698Z,1
2022-10-17T04:17:48.642Z,1
2022-10-17T04:19:51.906Z,1
2022-10-17T04:21:55.949Z,1
2022-10-17T04:24:00.104Z,1
2022-10-17T04:26:04.145Z,1
2022-10-17T04:28:11.283Z,1
2022-10-17T04:32:19.431Z,1
2022-10-17T04:34:23.526Z,1
2022-10-17T04:36:27.629Z,1
2022-10-17T04:38:31.726Z,1
2022-10-17T04:40:35.834Z,1
2022-10-17T04:42:42.924Z,1
2022-10-17T04:44:47.017Z,1
2022-10-17T04:46:51.138Z,1
2022-10-17T04:48:55.241Z,1
2022-10-17T04:50:59.322Z,1
2022-10-17T04:53:03.436Z,1
2022-10-17T04:55:07.526Z,1
2022-10-17T04:57:14.629Z,1
2022-10-17T04:59:18.704Z,1
2022-10-17T05:01:22.878Z,1
2022-10-17T05:03:47.462Z,1
2022-10-17T05:05:51.491Z,1
2022-10-17T05:07:55.611Z,1
2022-10-17T05:10:02.709Z,1
2022-10-17T05:14:10.864Z,1
2022-10-17T05:18:19.084Z,1
2022-10-17T05:20:23.148Z,1
2022-10-17T05:22:27.535Z,1
2022-10-17T05:26:38.444Z,1
2022-10-17T05:28:42.617Z,1
2022-10-17T05:30:46.651Z,1
2022-10-17T05:32:50.757Z,1
2022-10-17T05:34:54.839Z,1
2022-10-17T05:36:58.944Z,1
2022-10-17T05:39:06.048Z,1
2022-10-17T05:41:10.144Z,1
2022-10-17T05:45:18.351Z,1
2022-10-17T05:47:22.449Z,1
2022-10-17T05:51:30.698Z,1
2022-10-17T05:53:37.765Z,1
2022-10-17T05:55:41.868Z,1
2022-10-17T05:57:45.953Z,1
2022-10-17T05:58:51.590Z,1
2022-10-17T06:05:01.802Z,1
2022-10-17T06:07:08.903Z,1
2022-10-17T06:09:13.021Z,1
2022-10-17T06:11:17.125Z,1
2022-10-17T06:13:21.233Z,1
2022-10-17T06:15:25.348Z,1
2022-10-17T06:17:29.429Z,1
2022-10-17T06:25:48.857Z,1
2022-10-17T06:32:01.145Z,1
2022-10-17T06:36:12.362Z,1
2022-10-17T06:38:16.479Z,1
2022-10-17T06:40:20.597Z,1
2022-10-17T06:42:24.698Z,1
2022-10-17T06:44:28.788Z,1
2022-10-17T06:46:32.887Z,1
2022-10-17T06:48:37.020Z,1
2022-10-17T06:50:44.116Z,2.4
2022-10-17T06:52:48.229Z,2.3
2022-10-17T06:54:52.352Z,2.4
2022-10-17T07:02:08.206Z,2.4
2022-10-17T07:04:15.319Z,1
2022-10-17T07:06:19.442Z,1
2022-10-17T07:08:23.526Z,1
2022-10-17T07:10:27.645Z,1
2022-10-17T07:12:31.731Z,1
2022-10-17T07:14:35.860Z,1
2022-10-17T07:16:39.978Z,1
2022-10-17T07:18:47.093Z,1
2022-10-17T07:20:51.197Z,1
2022-10-17T07:22:55.308Z,1
2022-10-17T07:24:59.413Z,1
2022-10-17T07:27:03.523Z,1
2022-10-17T07:29:07.754Z,1
2022-10-17T07:31:11.762Z,1
2022-10-17T07:33:18.893Z,1
2022-10-17T07:35:23.003Z,1
2022-10-17T07:37:27.386Z,1
2022-10-17T07:39:31.209Z,1
2022-10-17T07:41:35.315Z,1
2022-10-17T07:43:40.997Z,99.6
2022-10-17T07:52:00.416Z,99.8
2022-10-17T07:53:03.973Z,99.8
2022-10-17T07:55:08.110Z,99.9
2022-10-17T07:57:12.212Z,99.9
2022-10-17T07:59:16.341Z,99.9
2022-10-17T08:01:23.475Z,4.7
2022-10-17T08:05:31.691Z,1
2022-10-17T08:07:35.816Z,99.6
2022-10-17T08:09:39.942Z,99.8
2022-10-17T08:11:44.151Z,99.8
2022-10-17T08:13:48.164Z,99.8
2022-10-17T08:15:55.294Z,99.8
2022-10-17T08:17:59.426Z,99.8
2022-10-17T08:20:03.577Z,99.9
2022-10-17T08:22:07.659Z,99.9
2022-10-17T08:24:11.794Z,99.9
2022-10-17T08:26:15.899Z,99.9
2022-10-17T08:30:27.182Z,99.9
2022-10-17T08:32:31.545Z,92.5
2022-10-17T08:34:35.379Z,99.6
2022-10-17T08:36:39.501Z,99.8
2022-10-17T08:38:43.886Z,14.1
2022-10-17T08:40:47.734Z,15.4
2022-10-17T08:42:51.855Z,1
2022-10-17T08:44:58.979Z,1
2022-10-17T08:47:03.089Z,1
2022-10-17T08:49:10.027Z,64.3
2022-10-17T08:51:31.478Z,99.8
2022-10-17T08:53:35.566Z,99.8
2022-10-17T08:55:42.802Z,99.8
2022-10-17T08:57:46.820Z,99.8
2022-10-17T08:59:50.921Z,99.8
2022-10-17T09:01:55.117Z,99.9
2022-10-17T09:03:59.191Z,99.9
2022-10-17T09:06:03.319Z,99.9
2022-10-17T09:08:07.440Z,99.9
2022-10-17T09:12:18.703Z,1
2022-10-17T09:14:22.805Z,1
2022-10-17T09:16:26.933Z,1
2022-10-17T09:18:31.070Z,11
2022-10-17T09:20:35.177Z,99.6
2022-10-17T09:22:39.314Z,99.8
2022-10-17T09:24:43.432Z,99.8
2022-10-17T09:26:50.551Z,99.8
2022-10-17T09:28:54.707Z,99.8
2022-10-17T09:30:58.809Z,99.8
2022-10-17T09:33:02.934Z,99.9
2022-10-17T09:35:07.042Z,99.9
2022-10-17T09:37:11.166Z,99.9
2022-10-17T09:39:15.308Z,99.9
2022-10-17T09:41:44.239Z,99.9
2022-10-17T09:43:26.541Z,99.9
2022-10-17T09:45:30.677Z,99.9
2022-10-17T09:48:38.350Z,99.9
2022-10-17T09:50:42.475Z,99.9
2022-10-17T09:53:28.144Z,99.9
2022-10-17T09:54:53.728Z,99.9
2022-10-17T09:56:57.844Z,99.9
2022-10-17T09:59:01.976Z,99.9
2022-10-17T10:01:06.150Z,99.9
2022-10-17T10:03:10.233Z,99.9
2022-10-17T10:05:14.332Z,99.9
2022-10-17T10:07:18.479Z,99.9
2022-10-17T10:11:29.730Z,1
2022-10-17T10:13:33.849Z,1
2022-10-17T10:15:37.995Z,1
2022-10-17T10:17:43.217Z,1
2022-10-17T10:19:46.213Z,1
2022-10-17T10:21:51.318Z,1
2022-10-17T10:23:57.461Z,1
2022-10-17T10:26:01.569Z,1
2022-10-17T10:28:05.707Z,1
2022-10-17T10:30:10.984Z,1
2022-10-17T10:32:13.927Z,1
2022-10-17T10:34:18.062Z,1
2022-10-17T10:36:22.163Z,1
2022-10-17T10:38:29.293Z,1
2022-10-17T10:40:33.484Z,1
2022-10-17T10:43:41.115Z,1
2022-10-17T10:45:48.969Z,1
2022-10-17T10:47:49.355Z,1
2022-10-17T10:54:04.730Z,1
2022-10-17T10:56:08.857Z,1
2022-10-17T10:58:12.983Z,1
2022-10-17T11:00:17.256Z,1
2022-10-17T11:02:21.217Z,1
2022-10-17T11:04:25.334Z,1
2022-10-17T11:06:32.480Z,1
2022-10-17T11:08:36.617Z,1
2022-10-17T11:10:40.717Z,1
2022-10-17T11:14:48.985Z,1
2022-10-17T11:16:53.078Z,1
2022-10-17T11:18:57.217Z,1
2022-10-17T11:21:04.387Z,1
2022-10-17T11:23:08.469Z,1
2022-10-17T11:25:12.585Z,1
2022-10-17T11:27:16.729Z,1
2022-10-17T11:29:20.835Z,1
2022-10-17T11:31:24.970Z,1
2022-10-17T11:33:29.101Z,1
2022-10-17T11:35:36.233Z,1
2022-10-17T11:37:40.962Z,1
2022-10-17T11:40:48.044Z,1
2022-10-17T11:42:52.168Z,1
2022-10-17T11:44:56.301Z,1
2022-10-17T11:47:00.403Z,99.9
2022-10-17T11:49:07.653Z,99.9
2022-10-17T11:55:19.897Z,99.9
2022-10-17T11:57:24.396Z,99.9
2022-10-17T11:59:28.141Z,99.9
2022-10-17T12:01:32.291Z,99.9
2022-10-17T12:09:51.797Z,99.9
2022-10-17T12:14:02.630Z,99.9
2022-10-17T12:18:11.308Z,1
2022-10-17T12:20:15.412Z,99.6
2022-10-17T12:22:19.560Z,99.8
2022-10-17T12:24:23.662Z,99.8
2022-10-17T12:26:27.813Z,99.8
2022-10-17T12:28:31.992Z,99.8
2022-10-17T12:30:36.051Z,99.8
2022-10-17T12:33:00.519Z,99.9
2022-10-17T12:34:47.310Z,99.9
2022-10-17T12:36:51.440Z,99.9
2022-10-17T12:39:15.805Z,99.9
2022-10-17T12:41:19.923Z,99.9
2022-10-17T12:43:24.055Z,94.4
2022-10-17T12:45:31.180Z,68.3
2022-10-17T12:47:35.331Z,94.8
2022-10-17T12:49:39.465Z,66.6
2022-10-17T12:51:43.570Z,37.6
2022-10-17T12:53:47.713Z,37.4
2022-10-17T12:55:51.823Z,8.3
2022-10-17T13:00:03.137Z,29.8
2022-10-17T13:02:07.293Z,10.4
2022-10-17T13:04:11.362Z,1
2022-10-17T13:06:15.487Z,1
2022-10-17T13:08:19.606Z,1
2022-10-17T13:10:23.773Z,1
2022-10-17T13:12:28.128Z,1
2022-10-17T13:14:34.964Z,1
2022-10-17T13:16:39.103Z,1
2022-10-17T13:18:43.237Z,1
2022-10-17T13:20:47.340Z,64.7
2022-10-17T13:22:51.493Z,84
2022-10-17T13:24:55.614Z,99.6
2022-10-17T13:26:59.715Z,99.8
2022-10-17T13:29:07.064Z,99.8
2022-10-17T13:31:10.990Z,99.8
2022-10-17T13:33:15.103Z,99.8
2022-10-17T13:34:18.670Z,99.8
2022-10-17T13:36:22.805Z,99.9
2022-10-17T13:38:26.930Z,99.9
2022-10-17T13:40:49.013Z,99.9
2022-10-17T13:42:39.763Z,99.9
2022-10-17T13:44:43.867Z,98.5
2022-10-17T13:46:47.968Z,65.5
2022-10-17T13:48:52.113Z,65.5
2022-10-17T13:53:00.348Z,67.2
2022-10-17T13:55:04.476Z,99.6
2022-10-17T13:57:11.606Z,99.8
2022-10-17T13:59:15.738Z,99.8
2022-10-17T14:01:19.921Z,99.8
2022-10-17T14:03:23.983Z,99.8
2022-10-17T14:05:28.102Z,99.8
2022-10-17T14:07:46.116Z,99.9
2022-10-17T14:09:36.371Z,99.9
2022-10-17T14:11:43.517Z,99.9
2022-10-17T14:13:47.613Z,99.9
2022-10-17T14:15:51.748Z,99.9
2022-10-17T14:17:55.882Z,99.9
2022-10-17T14:20:23.201Z,70.8
2022-10-17T14:22:04.124Z,64
2022-10-17T14:24:08.262Z,1
2022-10-17T14:26:15.409Z,1
2022-10-17T14:28:19.516Z,1
2022-10-17T14:30:38.787Z,1
2022-10-17T14:33:31.348Z,1
2022-10-17T14:37:39.597Z,1
2022-10-17T14:48:03.237Z,99.8
2022-10-17T14:52:14.915Z,99.8
2022-10-17T14:56:22.751Z,99.9
2022-10-17T15:00:31.016Z,99.9
2022-10-17T15:02:35.125Z,99.9
2022-10-17T15:04:39.257Z,99.9
2022-10-17T15:06:55.364Z,99.9
2022-10-17T15:10:54.648Z,99.9
2022-10-17T15:15:02.893Z,99.9
2022-10-17T15:17:06.997Z,99.9
2022-10-17T15:19:11.149Z,99.9
2022-10-17T15:21:26.475Z,99.9
2022-10-17T15:23:22.466Z,99.9
2022-10-17T15:25:26.528Z,99.9
2022-10-17T15:28:34.288Z,99.9
2022-10-17T15:30:38.360Z,99.9
2022-10-17T15:32:42.490Z,99.9
2022-10-17T15:34:46.621Z,99.9
2022-10-17T15:36:53.732Z,99.9
2022-10-17T15:38:57.857Z,99.9
2022-10-17T15:41:01.992Z,1
2022-10-17T15:43:06.135Z,1
2022-10-17T15:45:10.265Z,1
2022-10-17T15:47:14.380Z,1
2022-10-17T15:49:18.532Z,1
2022-10-17T15:51:25.654Z,1
2022-10-17T15:53:29.813Z,1
2022-10-17T15:55:33.936Z,1
2022-10-17T15:57:38.075Z,1
2022-10-17T16:05:57.587Z,52.4
2022-10-17T16:10:05.835Z,63.9
2022-10-17T16:12:10.012Z,65.4
2022-10-17T16:14:14.099Z,99.6
2022-10-17T16:16:18.200Z,99.8
2022-10-17T16:18:22.330Z,99.8
2022-10-17T16:20:29.467Z,99.8
2022-10-17T16:22:33.775Z,99.8
2022-10-17T16:24:37.731Z,99.8
2022-10-17T16:27:01.979Z,99.9
2022-10-17T16:29:06.155Z,99.9
2022-10-17T16:31:10.230Z,99.9
2022-10-17T16:33:17.369Z,99.9
2022-10-17T16:35:21.511Z,99.9
2022-10-17T16:37:25.587Z,1
2022-10-17T16:39:29.729Z,35.5
2022-10-17T16:41:33.832Z,99.6
2022-10-17T16:43:37.973Z,99.8
2022-10-17T16:45:42.099Z,99.8
2022-10-17T16:47:49.224Z,99.8
2022-10-17T16:49:53.340Z,99.8
2022-10-17T16:51:57.476Z,99.8
2022-10-17T16:54:01.588Z,99.9
2022-10-17T16:56:05.712Z,99.9
2022-10-17T16:58:09.825Z,99.9
2022-10-17T17:00:13.964Z,99.9
2022-10-17T17:02:21.464Z,99.9
2022-10-17T17:04:25.208Z,99.9
2022-10-17T17:06:29.351Z,99.9
2022-10-17T17:08:33.452Z,99.9
2022-10-17T17:10:37.589Z,99.9
2022-10-17T17:12:41.682Z,99.9
2022-10-17T17:14:45.826Z,99.9
2022-10-17T17:16:52.951Z,99.9
2022-10-17T17:18:57.061Z,99.9
2022-10-17T17:21:01.194Z,99.9
2022-10-17T17:22:04.745Z,99.9
2022-10-17T17:28:17.110Z,99.9
2022-10-17T17:30:24.225Z,99.9
2022-10-17T17:32:28.343Z,99.9
2022-10-17T17:34:32.470Z,1
2022-10-17T17:36:36.592Z,1
2022-10-17T17:38:40.712Z,99.9
2022-10-17T17:40:49.597Z,99.9
2022-10-17T17:42:48.973Z,1
2022-10-17T17:44:56.075Z,99.9
2022-10-17T17:47:00.168Z,1
2022-10-17T17:49:04.283Z,1
2022-10-17T17:51:08.409Z,1
2022-10-17T17:53:12.536Z,1
2022-10-17T17:55:16.648Z,1
2022-10-17T17:57:20.766Z,99.9
2022-10-17T17:59:27.895Z,1
2022-10-17T18:01:32.081Z,1
2022-10-17T18:03:36.135Z,1
2022-10-17T18:05:40.254Z,1
2022-10-17T18:07:44.362Z,1
2022-10-17T18:09:48.468Z,1
2022-10-17T18:11:52.623Z,1
2022-10-17T18:14:00.550Z,1
2022-10-17T18:16:04.660Z,1
2022-10-17T18:18:08.789Z,1
2022-10-17T18:19:12.353Z,1
2022-10-17T18:21:16.449Z,1
2022-10-17T18:23:20.595Z,1
2022-10-17T18:27:31.811Z,1
2022-10-17T18:29:35.922Z,1
2022-10-17T18:35:48.278Z,1
2022-10-17T18:39:56.500Z,1
2022-10-17T18:44:07.739Z,1
2022-10-17T18:48:15.970Z,1
2022-10-17T18:54:28.283Z,1
2022-10-17T18:58:39.520Z,1
2022-10-17T19:00:43.642Z,1
2022-10-17T19:02:47.762Z,1
2022-10-17T19:04:51.927Z,1
2022-10-17T19:06:55.965Z,1
2022-10-17T19:09:00.140Z,1
2022-10-17T19:11:07.206Z,1
2022-10-17T19:13:11.346Z,1
2022-10-17T19:16:18.990Z,1
2022-10-17T19:18:23.122Z,1
2022-10-17T19:20:27.222Z,1
2022-10-17T19:24:38.468Z,1
2022-10-17T19:26:42.584Z,1
2022-10-17T19:28:46.704Z,1
2022-10-17T19:30:50.777Z,1
2022-10-17T19:32:54.905Z,1
2022-10-17T19:34:58.997Z,1
2022-10-17T19:37:03.123Z,1
2022-10-17T19:39:11.797Z,1
2022-10-17T19:41:15.862Z,1
2022-10-17T19:43:19.958Z,1
2022-10-17T19:45:24.084Z,1
2022-10-17T19:47:28.172Z,1
2022-10-17T19:51:36.400Z,1
2022-10-17T19:53:43.508Z,1
2022-10-17T19:55:47.624Z,1
2022-10-17T19:57:51.736Z,1
2022-10-17T19:59:56.213Z,1
2022-10-17T20:01:59.996Z,1
2022-10-17T20:04:04.071Z,1
2022-10-17T20:06:08.164Z,1
2022-10-17T20:08:15.470Z,1
2022-10-17T20:10:19.435Z,1
2022-10-17T20:12:23.525Z,1
2022-10-17T20:14:47.351Z,1
2022-10-17T20:18:55.582Z,1
2022-10-17T20:21:02.771Z,1
2022-10-17T20:23:06.817Z,1
2022-10-17T20:25:10.951Z,1
2022-10-17T20:27:15.045Z,1
2022-10-17T20:29:19.152Z,1
2022-10-17T20:31:23.266Z,1
2022-10-17T20:33:31.835Z,1
2022-10-17T20:35:34.555Z,1
2022-10-17T20:37:41.630Z,1
2022-10-17T20:39:42.746Z,1
2022-10-17T20:41:46.851Z,1
2022-10-17T20:43:50.968Z,1
2022-10-17T20:46:03.529Z,1
2022-10-17T20:47:59.328Z,1
2022-10-17T20:50:06.330Z,1
2022-10-17T20:52:10.468Z,1
2022-10-17T20:54:14.610Z,1
2022-10-17T20:56:18.683Z,1
2022-10-17T20:58:22.796Z,1
2022-10-17T21:00:26.911Z,1
2022-10-17T21:02:31.033Z,1
2022-10-17T21:04:46.392Z,1
2022-10-17T21:06:42.294Z,1
2022-10-17T21:08:46.380Z,1
2022-10-17T21:11:54.126Z,1
2022-10-17T21:13:58.189Z,1
2022-10-17T21:16:02.318Z,1
2022-10-17T21:18:09.456Z,1
2022-10-17T21:20:13.564Z,1
2022-10-17T21:22:17.687Z,1
2022-10-17T21:24:21.788Z,1
2022-10-17T21:26:25.909Z,1
2022-10-17T21:28:30.136Z,1
2022-10-17T21:30:34.153Z,1
2022-10-17T21:32:51.484Z,1
2022-10-17T21:34:45.384Z,1
2022-10-17T21:36:49.518Z,1
2022-10-17T21:38:53.645Z,1
2022-10-17T21:40:57.737Z,1
2022-10-17T21:43:01.853Z,1
2022-10-17T21:45:15.389Z,1
2022-10-17T21:47:13.127Z,1
2022-10-17T21:49:17.249Z,1
2022-10-17T21:51:21.366Z,1
2022-10-17T21:53:25.481Z,1
2022-10-17T21:55:29.608Z,1
2022-10-17T21:57:33.709Z,1
2022-10-17T21:59:37.822Z,1
2022-10-17T22:01:45.022Z,1
2022-10-17T22:06:56.756Z,1
2022-10-17T22:09:00.844Z,1
2022-10-17T22:11:04.957Z,1
2022-10-17T22:13:09.056Z,1
2022-10-17T22:15:16.214Z,1
2022-10-17T22:17:20.300Z,1
2022-10-17T22:19:24.420Z,1
2022-10-17T22:21:28.521Z,1
2022-10-17T22:23:32.651Z,1
2022-10-17T22:25:36.759Z,1
2022-10-17T22:27:40.865Z,1
2022-10-17T22:29:47.978Z,1
2022-10-17T22:31:52.084Z,1
2022-10-17T22:33:56.230Z,1
2022-10-17T22:36:00.345Z,1
2022-10-17T22:38:04.463Z,1
2022-10-17T22:40:08.581Z,1
2022-10-17T22:42:12.705Z,1
2022-10-17T22:50:32.181Z,1
2022-10-17T22:56:44.471Z,1
2022-10-17T22:58:51.577Z,1
2022-10-17T23:00:55.699Z,1
2022-10-17T23:02:59.816Z,1
2022-10-17T23:04:03.366Z,1
2022-10-17T23:06:07.466Z,1
2022-10-17T23:08:11.574Z,1
2022-10-17T23:10:15.695Z,1
2022-10-17T23:12:22.832Z,1
2022-10-17T23:14:26.908Z,1
2022-10-17T23:16:31.034Z,1
2022-10-17T23:18:35.150Z,1
2022-10-17T23:20:39.254Z,1
2022-10-17T23:22:43.361Z,1
2022-10-17T23:24:47.453Z,1
2022-10-17T23:26:54.579Z,1
2022-10-17T23:28:58.731Z,1
2022-10-17T23:31:02.819Z,1
2022-10-17T23:35:11.031Z,1
2022-10-17T23:37:15.147Z,1
2022-10-17T23:39:22.896Z,1
2022-10-17T23:41:26.351Z,1
2022-10-17T23:45:36.867Z,1
2022-10-17T23:47:38.708Z,1
2022-10-17T23:49:42.792Z,1
2022-10-17T23:51:46.917Z,1
2022-10-17T23:53:51.034Z,1
2022-10-17T23:55:58.146Z,1
2022-10-17T23:58:02.274Z,1
